createdAt,value
2019-02-20T00:00:08.546Z,98.83
2019-02-20T00:02:37.026Z,98.49
2019-02-20T00:05:06.022Z,98.42
2019-02-20T00:07:34.450Z,98.40
2019-02-20T00:10:02.881Z,98.33
2019-02-20T00:12:31.342Z,98.03
2019-02-20T00:14:59.885Z,97.72
2019-02-20T00:17:28.278Z,97.24
2019-02-20T00:19:56.733Z,96.84
2019-02-20T00:22:25.505Z,95.72
2019-02-20T00:24:53.957Z,96.29
2019-02-20T00:27:22.434Z,96.15
2019-02-20T00:29:50.839Z,95.59
2019-02-20T00:32:19.270Z,95.24
2019-02-20T00:34:47.706Z,95.29
2019-02-20T00:37:16.112Z,95.45
2019-02-20T00:39:44.568Z,95.55
2019-02-20T00:42:13.005Z,95.28
2019-02-20T00:44:48.776Z,94.82
2019-02-20T00:47:18.864Z,95.50
2019-02-20T00:49:47.367Z,95.16
2019-02-20T00:52:32.055Z,95.87
2019-02-20T00:55:00.568Z,95.79
2019-02-20T00:57:28.950Z,95.06
2019-02-20T00:59:57.397Z,95.82
2019-02-20T01:02:25.830Z,94.71
2019-02-20T01:04:54.259Z,95.36
2019-02-20T01:07:22.691Z,94.80
2019-02-20T01:09:51.137Z,93.76
2019-02-20T01:12:19.552Z,93.92
2019-02-20T01:14:47.966Z,94.00
2019-02-20T01:17:16.459Z,94.29
2019-02-20T01:19:44.896Z,94.19
2019-02-20T01:22:13.310Z,93.57
2019-02-20T01:24:41.775Z,93.61
2019-02-20T01:27:10.216Z,93.18
2019-02-20T01:29:38.630Z,94.00
2019-02-20T01:32:07.097Z,93.94
2019-02-20T01:34:35.507Z,93.54
2019-02-20T01:37:03.946Z,93.57
2019-02-20T01:39:32.463Z,93.90
2019-02-20T01:42:00.907Z,93.65
2019-02-20T01:44:29.440Z,93.49
2019-02-20T01:46:57.878Z,92.85
2019-02-20T01:49:26.355Z,93.64
2019-02-20T01:51:54.772Z,93.59
2019-02-20T01:54:23.179Z,93.64
2019-02-20T01:56:51.626Z,93.20
2019-02-20T01:59:20.063Z,93.64
2019-02-20T02:01:48.560Z,93.64
2019-02-20T02:04:17.019Z,93.74
2019-02-20T02:06:45.443Z,92.53
2019-02-20T02:09:13.908Z,93.24
2019-02-20T02:11:42.318Z,93.24
2019-02-20T02:14:10.756Z,92.65
2019-02-20T02:16:39.272Z,92.71
2019-02-20T02:19:07.700Z,92.19
2019-02-20T02:21:36.127Z,92.01
2019-02-20T02:24:05.234Z,92.59
2019-02-20T02:26:33.676Z,92.06
2019-02-20T02:29:02.111Z,92.28
2019-02-20T02:31:30.665Z,92.61
2019-02-20T02:33:59.075Z,92.14
2019-02-20T02:36:27.506Z,92.00
2019-02-20T02:38:55.984Z,91.58
2019-02-20T02:41:24.468Z,91.46
2019-02-20T02:43:52.902Z,91.75
2019-02-20T02:46:21.334Z,91.79
2019-02-20T02:48:49.787Z,92.00
2019-02-20T02:51:18.253Z,91.59
2019-02-20T02:53:46.668Z,92.48
2019-02-20T02:56:15.082Z,91.53
2019-02-20T02:58:43.614Z,91.87
2019-02-20T03:01:12.051Z,92.06
2019-02-20T03:03:40.476Z,91.41
2019-02-20T03:06:08.932Z,91.39
2019-02-20T03:08:37.334Z,92.20
2019-02-20T03:11:05.792Z,91.65
2019-02-20T03:13:34.237Z,91.38
2019-02-20T03:16:02.680Z,91.19
2019-02-20T03:18:31.108Z,91.45
2019-02-20T03:20:59.723Z,91.93
2019-02-20T03:23:28.173Z,92.20
2019-02-20T03:25:56.598Z,92.22
2019-02-20T03:28:25.028Z,93.18
2019-02-20T03:30:53.471Z,92.86
2019-02-20T03:33:21.929Z,93.16
2019-02-20T03:35:50.373Z,93.31
2019-02-20T03:38:29.617Z,93.12
2019-02-20T03:40:48.972Z,93.56
2019-02-20T03:43:17.683Z,93.84
2019-02-20T03:45:46.124Z,93.94
2019-02-20T03:48:14.567Z,94.01
2019-02-20T03:50:43.005Z,94.26
2019-02-20T03:53:11.432Z,94.52
2019-02-20T03:55:39.940Z,94.54
2019-02-20T03:58:08.395Z,94.73
2019-02-20T04:00:36.882Z,95.10
2019-02-20T04:03:05.375Z,95.53
2019-02-20T04:05:33.843Z,95.68
2019-02-20T04:08:02.254Z,95.82
2019-02-20T04:10:30.664Z,95.95
2019-02-20T04:12:59.118Z,95.94
2019-02-20T04:15:28.118Z,95.91
2019-02-20T04:17:56.539Z,95.72
2019-02-20T04:20:25.044Z,96.05
2019-02-20T04:22:53.447Z,96.07
2019-02-20T04:25:21.903Z,95.85
2019-02-20T04:27:50.320Z,96.04
2019-02-20T04:30:18.836Z,96.29
2019-02-20T04:32:47.260Z,96.51
2019-02-20T04:35:15.752Z,96.95
2019-02-20T04:37:44.184Z,96.94
2019-02-20T04:40:12.632Z,97.50
2019-02-20T04:42:41.041Z,97.37
2019-02-20T04:45:09.474Z,97.30
2019-02-20T04:47:37.906Z,97.74
2019-02-20T04:50:08.988Z,97.71
2019-02-20T04:52:37.499Z,98.02
2019-02-20T04:55:06.785Z,97.93
2019-02-20T04:57:35.253Z,97.87
2019-02-20T05:00:04.367Z,98.16
2019-02-20T05:02:32.784Z,98.15
2019-02-20T05:05:01.242Z,98.25
2019-02-20T05:07:29.670Z,98.88
2019-02-20T05:09:58.077Z,98.66
2019-02-20T05:12:26.530Z,98.52
2019-02-20T05:14:54.971Z,98.62
2019-02-20T05:17:23.426Z,98.89
2019-02-20T05:19:51.862Z,99.40
2019-02-20T05:22:20.318Z,99.40
2019-02-20T05:24:48.715Z,99.23
2019-02-20T05:27:17.164Z,100.00
2019-02-20T05:29:45.570Z,100.00
2019-02-20T05:32:14.019Z,100.00
2019-02-20T05:34:42.445Z,99.38
2019-02-20T05:37:10.922Z,99.82
2019-02-20T05:39:39.344Z,99.49
2019-02-20T05:42:07.788Z,99.56
2019-02-20T05:44:36.225Z,99.20
2019-02-20T05:47:04.673Z,98.90
2019-02-20T05:49:33.097Z,98.85
2019-02-20T05:52:01.554Z,98.80
2019-02-20T05:54:34.378Z,99.39
2019-02-20T05:57:00.147Z,99.70
2019-02-20T05:59:28.579Z,99.23
2019-02-20T06:01:57.049Z,99.34
2019-02-20T06:04:25.442Z,99.60
2019-02-20T06:06:53.900Z,99.54
2019-02-20T06:09:22.327Z,99.49
2019-02-20T06:11:50.788Z,99.43
2019-02-20T06:14:19.211Z,98.84
2019-02-20T06:16:47.629Z,98.96
2019-02-20T06:19:17.054Z,98.98
2019-02-20T06:21:45.476Z,99.33
2019-02-20T06:24:13.884Z,98.89
2019-02-20T06:26:42.370Z,98.80
2019-02-20T06:29:10.820Z,98.83
2019-02-20T06:31:39.267Z,98.55
2019-02-20T06:34:07.706Z,99.07
2019-02-20T06:36:36.111Z,98.84
2019-02-20T06:39:05.281Z,99.29
2019-02-20T06:41:39.204Z,99.85
2019-02-20T06:44:03.891Z,99.58
2019-02-20T06:46:32.342Z,99.13
2019-02-20T06:49:00.767Z,98.79
2019-02-20T06:51:29.308Z,99.33
2019-02-20T06:53:57.936Z,98.61
2019-02-20T06:56:26.387Z,98.90
2019-02-20T06:58:54.855Z,98.10
2019-02-20T07:01:23.325Z,98.06
2019-02-20T07:03:51.789Z,97.43
2019-02-20T07:06:26.310Z,97.53
2019-02-20T07:09:15.271Z,97.23
2019-02-20T07:11:56.041Z,97.10
2019-02-20T07:14:42.333Z,96.02
2019-02-20T07:17:36.207Z,95.65
2019-02-20T07:20:19.021Z,95.30
2019-02-20T07:22:56.469Z,95.69
2019-02-20T07:25:33.462Z,95.87
2019-02-20T07:28:10.988Z,95.54
2019-02-20T07:30:39.484Z,95.29
2019-02-20T07:33:07.941Z,96.04
2019-02-20T07:35:36.441Z,95.81
2019-02-20T07:38:04.880Z,95.38
2019-02-20T07:40:33.319Z,94.75
2019-02-20T07:43:01.758Z,94.96
2019-02-20T07:45:30.207Z,94.33
2019-02-20T07:47:58.659Z,93.98
2019-02-20T07:50:27.131Z,94.37
2019-02-20T07:52:55.599Z,93.78
2019-02-20T07:55:24.042Z,94.53
2019-02-20T07:57:52.460Z,94.48
2019-02-20T08:00:20.943Z,93.35
2019-02-20T08:02:49.344Z,94.61
2019-02-20T08:05:17.760Z,94.07
2019-02-20T08:07:46.233Z,93.72
2019-02-20T08:10:14.655Z,93.42
2019-02-20T08:12:43.121Z,93.14
2019-02-20T08:15:12.439Z,94.14
2019-02-20T08:17:40.813Z,92.25
2019-02-20T08:20:10.835Z,92.38
2019-02-20T08:22:39.470Z,92.67
2019-02-20T08:25:08.329Z,92.37
2019-02-20T08:27:36.804Z,92.50
2019-02-20T08:30:08.262Z,93.13
2019-02-20T08:32:36.726Z,92.07
2019-02-20T08:35:06.999Z,91.80
2019-02-20T08:37:35.461Z,91.64
2019-02-20T08:40:05.440Z,91.76
2019-02-20T08:42:33.884Z,90.78
2019-02-20T08:45:02.299Z,91.35
2019-02-20T08:47:30.782Z,90.87
2019-02-20T08:49:59.190Z,91.27
2019-02-20T08:52:27.639Z,90.68
2019-02-20T08:54:56.104Z,90.58
2019-02-20T08:57:24.520Z,90.53
2019-02-20T08:59:52.948Z,89.61
2019-02-20T09:02:21.401Z,89.45
2019-02-20T09:04:49.815Z,89.36
2019-02-20T09:07:18.266Z,89.89
2019-02-20T09:09:46.726Z,89.48
2019-02-20T09:12:15.174Z,89.68
2019-02-20T09:14:43.641Z,89.48
2019-02-20T09:17:12.049Z,89.36
2019-02-20T09:19:40.494Z,89.06
2019-02-20T09:22:09.261Z,88.04
2019-02-20T09:24:37.705Z,88.83
2019-02-20T09:27:06.227Z,88.20
2019-02-20T09:29:34.678Z,87.32
2019-02-20T09:32:03.113Z,88.18
2019-02-20T09:34:31.530Z,87.23
2019-02-20T09:36:59.970Z,87.39
2019-02-20T09:39:31.003Z,86.74
2019-02-20T09:41:59.489Z,87.43
2019-02-20T09:44:29.760Z,87.18
2019-02-20T09:46:58.710Z,87.01
2019-02-20T09:49:27.154Z,86.44
2019-02-20T09:51:55.600Z,84.92
2019-02-20T09:54:24.064Z,85.39
2019-02-20T09:56:52.553Z,84.93
2019-02-20T09:59:21.024Z,83.40
2019-02-20T10:01:49.435Z,83.55
2019-02-20T10:04:17.884Z,83.23
2019-02-20T10:06:46.364Z,82.41
2019-02-20T10:09:16.270Z,82.69
2019-02-20T10:11:45.331Z,82.32
2019-02-20T10:14:13.815Z,81.76
2019-02-20T10:16:42.260Z,80.63
2019-02-20T10:19:10.735Z,81.38
2019-02-20T10:21:39.220Z,80.53
2019-02-20T10:24:07.786Z,80.61
2019-02-20T10:26:36.302Z,81.52
2019-02-20T10:29:04.713Z,81.70
2019-02-20T10:31:33.167Z,81.08
2019-02-20T10:34:01.624Z,80.94
2019-02-20T10:36:30.051Z,80.92
2019-02-20T10:38:58.563Z,80.23
2019-02-20T10:41:27.013Z,81.53
2019-02-20T10:43:55.443Z,81.28
2019-02-20T10:46:23.878Z,80.42
2019-02-20T10:48:52.314Z,79.71
2019-02-20T10:51:20.759Z,79.11
2019-02-20T10:53:49.189Z,79.15
2019-02-20T10:56:17.697Z,79.17
2019-02-20T10:58:46.160Z,79.17
2019-02-20T11:01:14.572Z,79.45
2019-02-20T11:03:43.053Z,78.07
2019-02-20T11:06:11.490Z,78.28
2019-02-20T11:08:39.916Z,78.64
2019-02-20T11:11:08.426Z,77.89
2019-02-20T11:13:36.883Z,78.20
2019-02-20T11:16:05.299Z,78.16
2019-02-20T11:18:33.741Z,77.81
2019-02-20T11:21:02.359Z,76.99
2019-02-20T11:23:30.832Z,77.28
2019-02-20T11:25:59.230Z,76.39
2019-02-20T11:28:27.641Z,76.16
2019-02-20T11:30:56.887Z,76.02
2019-02-20T11:33:25.373Z,77.44
2019-02-20T11:35:53.801Z,75.20
2019-02-20T11:38:22.338Z,74.42
2019-02-20T11:40:50.757Z,76.93
2019-02-20T11:43:19.187Z,75.99
2019-02-20T11:45:47.644Z,74.97
2019-02-20T11:48:16.114Z,75.65
2019-02-20T11:50:44.578Z,76.48
2019-02-20T11:53:13.015Z,75.13
2019-02-20T11:55:41.483Z,75.98
2019-02-20T11:58:09.921Z,74.10
2019-02-20T12:00:38.490Z,74.11
2019-02-20T12:03:06.962Z,74.67
2019-02-20T12:05:35.486Z,73.68
2019-02-20T12:08:03.998Z,72.56
2019-02-20T12:10:32.551Z,71.92
2019-02-20T12:13:01.015Z,71.83
2019-02-20T12:15:29.494Z,71.52
2019-02-20T12:17:58.014Z,71.38
2019-02-20T12:20:26.517Z,71.83
2019-02-20T12:22:54.995Z,72.19
2019-02-20T12:25:23.484Z,71.45
2019-02-20T12:27:51.917Z,71.43
2019-02-20T12:30:20.443Z,71.27
2019-02-20T12:32:48.999Z,70.60
2019-02-20T12:35:17.497Z,70.20
2019-02-20T12:37:45.993Z,70.69
2019-02-20T12:40:14.498Z,72.40
2019-02-20T12:42:42.917Z,70.25
2019-02-20T12:45:11.495Z,70.85
2019-02-20T12:47:39.896Z,71.67
2019-02-20T12:50:15.441Z,72.04
2019-02-20T12:52:43.968Z,70.98
2019-02-20T12:55:12.515Z,70.51
2019-02-20T12:57:40.953Z,70.43
2019-02-20T13:00:15.676Z,70.21
2019-02-20T13:02:44.187Z,70.93
2019-02-20T13:05:12.705Z,70.92
2019-02-20T13:07:41.141Z,70.37
2019-02-20T13:10:10.531Z,69.74
2019-02-20T13:12:39.133Z,71.11
2019-02-20T13:15:11.900Z,69.80
2019-02-20T13:17:40.414Z,70.19
2019-02-20T13:20:12.562Z,70.54
2019-02-20T13:22:41.039Z,69.65
2019-02-20T13:25:10.527Z,70.11
2019-02-20T13:27:40.231Z,70.11
2019-02-20T13:30:12.127Z,70.02
2019-02-20T13:32:41.620Z,70.90
2019-02-20T13:35:10.176Z,69.04
2019-02-20T13:37:38.687Z,70.16
2019-02-20T13:40:09.889Z,68.11
2019-02-20T13:42:38.472Z,66.73
2019-02-20T13:45:08.777Z,67.66
2019-02-20T13:47:37.215Z,66.12
2019-02-20T13:50:08.241Z,65.94
2019-02-20T13:52:36.695Z,64.68
2019-02-20T13:55:06.335Z,64.99
2019-02-20T13:57:35.164Z,64.76
2019-02-20T14:00:06.976Z,65.27
2019-02-20T14:02:35.474Z,66.18
2019-02-20T14:05:04.610Z,65.56
2019-02-20T14:07:33.163Z,66.63
2019-02-20T14:10:02.674Z,66.38
2019-02-20T14:12:31.090Z,66.29
2019-02-20T14:14:59.533Z,67.15
2019-02-20T14:17:27.977Z,66.76
2019-02-20T14:19:56.430Z,66.21
2019-02-20T14:22:24.881Z,66.40
2019-02-20T14:24:53.358Z,66.41
2019-02-20T14:27:21.856Z,66.19
2019-02-20T14:29:50.283Z,66.43
2019-02-20T14:32:18.704Z,66.13
2019-02-20T14:34:47.213Z,66.21
2019-02-20T14:37:15.691Z,66.29
2019-02-20T14:39:44.196Z,66.64
2019-02-20T14:42:13.268Z,65.56
2019-02-20T14:44:41.690Z,65.69
2019-02-20T14:47:10.163Z,65.52
2019-02-20T14:49:38.565Z,65.17
2019-02-20T14:52:07.066Z,64.84
2019-02-20T14:54:35.526Z,65.46
2019-02-20T14:57:03.965Z,65.31
2019-02-20T14:59:32.839Z,65.98
2019-02-20T15:02:01.292Z,65.84
2019-02-20T15:04:29.826Z,65.85
2019-02-20T15:06:58.630Z,65.97
2019-02-20T15:09:27.045Z,66.51
2019-02-20T15:11:55.565Z,66.86
2019-02-20T15:14:24.028Z,66.89
2019-02-20T15:16:52.526Z,67.03
2019-02-20T15:19:20.989Z,67.24
2019-02-20T15:21:49.417Z,68.09
2019-02-20T15:24:17.903Z,67.99
2019-02-20T15:26:46.353Z,68.58
2019-02-20T15:29:14.771Z,68.96
2019-02-20T15:31:43.197Z,68.72
2019-02-20T15:34:11.702Z,69.70
2019-02-20T15:36:40.099Z,69.20
2019-02-20T15:39:09.564Z,69.58
2019-02-20T15:41:38.783Z,69.18
2019-02-20T15:44:07.979Z,69.35
2019-02-20T15:46:36.439Z,70.31
2019-02-20T15:49:05.678Z,70.63
2019-02-20T15:51:34.110Z,70.43
2019-02-20T15:54:02.673Z,70.98
2019-02-20T15:56:31.168Z,70.29
2019-02-20T15:59:01.187Z,71.06
2019-02-20T16:01:30.347Z,70.91
2019-02-20T16:04:00.213Z,70.92
2019-02-20T16:06:28.794Z,71.30
2019-02-20T16:08:57.244Z,71.25
2019-02-20T16:11:26.302Z,71.46
2019-02-20T16:13:55.039Z,72.06
2019-02-20T16:16:24.826Z,71.64
2019-02-20T16:18:53.516Z,71.57
2019-02-20T16:21:22.651Z,72.07
2019-02-20T16:23:51.238Z,72.33
2019-02-20T16:26:19.864Z,72.60
2019-02-20T16:28:48.489Z,72.67
2019-02-20T16:31:16.927Z,73.20
2019-02-20T16:33:45.733Z,73.35
2019-02-20T16:36:14.582Z,73.63
2019-02-20T16:38:43.571Z,74.12
2019-02-20T16:41:12.747Z,74.36
2019-02-20T16:43:41.280Z,74.39
2019-02-20T16:46:10.564Z,74.01
2019-02-20T16:48:39.765Z,74.44
2019-02-20T16:51:08.172Z,74.60
2019-02-20T16:53:37.129Z,74.93
2019-02-20T16:56:05.701Z,74.22
2019-02-20T16:58:34.124Z,74.53
2019-02-20T17:01:02.905Z,74.52
2019-02-20T17:03:32.477Z,75.34
2019-02-20T17:06:03.009Z,75.16
2019-02-20T17:08:35.632Z,76.31
2019-02-20T17:11:04.387Z,76.88
2019-02-20T17:13:33.161Z,76.85
2019-02-20T17:16:01.655Z,77.11
2019-02-20T17:18:30.398Z,77.37
2019-02-20T17:20:59.061Z,77.48
2019-02-20T17:23:29.337Z,76.87
2019-02-20T17:25:58.500Z,76.55
2019-02-20T17:28:27.119Z,75.96
2019-02-20T17:30:55.668Z,75.97
2019-02-20T17:33:24.417Z,74.49
2019-02-20T17:35:52.895Z,74.35
2019-02-20T17:38:21.463Z,72.98
2019-02-20T17:40:50.422Z,73.15
2019-02-20T17:43:18.977Z,73.39
2019-02-20T17:45:47.486Z,72.77
2019-02-20T17:48:16.004Z,72.75
2019-02-20T17:50:44.547Z,73.85
2019-02-20T17:53:12.989Z,74.12
2019-02-20T17:55:42.765Z,75.41
2019-02-20T17:58:15.094Z,76.04
2019-02-20T18:00:43.603Z,76.49
2019-02-20T18:03:12.012Z,77.35
2019-02-20T18:05:40.734Z,77.64
2019-02-20T18:08:09.492Z,77.88
2019-02-20T18:10:37.967Z,78.69
2019-02-20T18:13:06.477Z,78.42
2019-02-20T18:15:34.836Z,79.04
2019-02-20T18:18:03.307Z,78.78
2019-02-20T18:20:32.307Z,78.92
2019-02-20T18:23:00.752Z,79.01
2019-02-20T18:25:29.682Z,79.17
2019-02-20T18:27:59.615Z,79.12
2019-02-20T18:30:28.724Z,79.08
2019-02-20T18:33:00.300Z,79.20
2019-02-20T18:35:29.477Z,79.46
2019-02-20T18:37:58.689Z,79.75
2019-02-20T18:40:27.455Z,80.16
2019-02-20T18:42:56.549Z,80.71
2019-02-20T18:45:25.350Z,81.46
2019-02-20T18:47:53.886Z,80.53
2019-02-20T18:50:23.564Z,80.59
2019-02-20T18:52:51.999Z,80.92
2019-02-20T18:55:20.685Z,81.37
2019-02-20T18:57:49.157Z,81.45
2019-02-20T19:00:22.442Z,81.18
2019-02-20T19:02:50.917Z,81.01
2019-02-20T19:05:19.448Z,80.98
2019-02-20T19:07:48.036Z,81.02
2019-02-20T19:10:25.629Z,81.59
2019-02-20T19:12:57.163Z,81.17
2019-02-20T19:15:40.990Z,81.29
2019-02-20T19:18:24.565Z,81.40
2019-02-20T19:21:01.877Z,81.43
2019-02-20T19:23:49.723Z,81.39
2019-02-20T19:26:21.239Z,81.11
2019-02-20T19:28:58.714Z,81.55
2019-02-20T19:31:48.083Z,82.05
2019-02-20T19:34:43.214Z,81.43
2019-02-20T19:37:20.426Z,81.60
2019-02-20T19:40:09.705Z,81.80
2019-02-20T19:43:01.809Z,81.81
2019-02-20T19:45:53.468Z,82.43
2019-02-20T19:48:31.671Z,83.11
2019-02-20T19:51:12.842Z,83.19
2019-02-20T19:53:44.551Z,83.32
2019-02-20T19:56:24.743Z,83.15
2019-02-20T19:59:18.462Z,83.09
2019-02-20T20:02:11.344Z,82.61
2019-02-20T20:04:59.299Z,82.52
2019-02-20T20:07:42.819Z,83.23
2019-02-20T20:10:29.341Z,82.80
2019-02-20T20:13:03.938Z,83.42
2019-02-20T20:15:44.632Z,83.64
2019-02-20T20:18:24.866Z,83.08
2019-02-20T20:21:08.336Z,82.86
2019-02-20T20:23:43.312Z,82.59
2019-02-20T20:26:18.624Z,82.42
2019-02-20T20:29:06.469Z,82.50
2019-02-20T20:31:59.084Z,82.95
2019-02-20T20:34:48.041Z,82.85
2019-02-20T20:37:31.559Z,82.89
2019-02-20T20:40:11.929Z,82.90
2019-02-20T20:42:46.158Z,83.17
2019-02-20T20:45:26.791Z,83.51
2019-02-20T20:48:16.564Z,83.72
2019-02-20T20:51:06.343Z,83.77
2019-02-20T20:53:56.181Z,84.11
2019-02-20T20:56:44.585Z,83.96
2019-02-20T20:59:46.235Z,84.59
2019-02-20T21:02:17.784Z,84.67
2019-02-20T21:05:00.986Z,84.94
2019-02-20T21:07:47.870Z,85.23
2019-02-20T21:10:36.500Z,85.39
2019-02-20T21:13:39.658Z,85.68
2019-02-20T21:16:24.944Z,85.63
2019-02-20T21:19:21.807Z,85.09
2019-02-20T21:22:12.816Z,85.62
2019-02-20T21:24:56.211Z,85.66
2019-02-20T21:27:56.422Z,85.01
2019-02-20T21:30:28.115Z,85.18
2019-02-20T21:33:11.496Z,84.46
2019-02-20T21:35:51.905Z,84.04
2019-02-20T21:38:32.768Z,84.44
2019-02-20T21:41:19.060Z,83.75
2019-02-20T21:44:13.003Z,84.07
2019-02-20T21:46:45.265Z,85.14
2019-02-20T21:49:31.919Z,85.07
2019-02-20T21:52:12.099Z,84.92
2019-02-20T21:54:55.405Z,84.58
2019-02-20T21:57:35.761Z,84.94
2019-02-20T22:00:16.124Z,84.44
2019-02-20T22:03:08.220Z,84.68
2019-02-20T22:05:54.612Z,84.72
2019-02-20T22:08:48.775Z,84.32
2019-02-20T22:11:25.909Z,85.32
2019-02-20T22:14:14.078Z,84.55
2019-02-20T22:17:03.691Z,84.58
2019-02-20T22:19:40.978Z,84.59
2019-02-20T22:22:36.152Z,84.18
2019-02-20T22:25:27.589Z,83.87
2019-02-20T22:28:11.197Z,83.36
2019-02-20T22:31:01.999Z,83.77
2019-02-20T22:33:36.102Z,83.96
2019-02-20T22:36:07.659Z,83.85
2019-02-20T22:39:05.152Z,83.60
2019-02-20T22:41:51.666Z,83.47
2019-02-20T22:44:38.381Z,83.71
2019-02-20T22:47:12.535Z,84.08
2019-02-20T22:49:46.561Z,83.92
2019-02-20T22:52:20.848Z,83.91
2019-02-20T22:55:14.788Z,84.46
2019-02-20T22:57:58.338Z,84.52
2019-02-20T23:01:00.305Z,84.43
2019-02-20T23:03:51.006Z,84.49
2019-02-20T23:06:28.060Z,84.50
2019-02-20T23:09:17.467Z,84.80
2019-02-20T23:12:20.827Z,84.70
2019-02-20T23:15:00.352Z,85.10
2019-02-20T23:17:29.407Z,84.72
2019-02-20T23:19:58.009Z,84.99
2019-02-20T23:22:26.453Z,85.30
2019-02-20T23:24:54.895Z,85.20
2019-02-20T23:27:23.336Z,85.37
2019-02-20T23:29:51.763Z,85.27
2019-02-20T23:32:20.199Z,86.25
2019-02-20T23:34:48.743Z,85.61
2019-02-20T23:37:17.157Z,85.80
2019-02-20T23:39:45.595Z,85.95
2019-02-20T23:42:14.045Z,86.54
2019-02-20T23:44:42.452Z,85.74
2019-02-20T23:47:10.878Z,85.73
2019-02-20T23:49:39.488Z,85.54
2019-02-20T23:52:07.899Z,85.97
2019-02-20T23:54:36.326Z,85.28
2019-02-20T23:57:04.906Z,85.58
2019-02-20T23:59:33.459Z,85.58
